Time;durP1;ratioP1;P1;durP2;ratioP2;P2;SDS_P1;SDS_P2;PMS_P1;PMS_P2;Temp;Humidity;BMP_temperature;BMP_pressure;BME280_temperature;BME280_humidity;BME280_pressure;Samples;Min_cycle;Max_cycle;Signal;HPM_P1;HPM_P2
2023/08/02 00:01:26;;;;;;;;;;;20.40;70.70;;;;;;4992642;28;19917;-71
2023/08/02 00:03:51;;;;;;;;;;;20.40;70.60;;;;;;4975066;28;19929;-71
2023/08/02 00:06:17;;;;;;;;;;;20.40;70.50;;;;;;4992565;28;20001;-71
2023/08/02 00:08:42;;;;;;;;;;;20.40;70.60;;;;;;4992230;28;19964;-72
2023/08/02 00:11:17;;;;;;;;;;;20.40;70.70;;;;;;4992728;28;19921;-72
2023/08/02 00:13:43;;;;;;;;;;;20.40;70.70;;;;;;4992031;28;19948;-71
2023/08/02 00:16:09;;;;;;;;;;;20.40;70.70;;;;;;4992728;28;19909;-72
2023/08/02 00:18:34;;;;;;;;;;;20.40;70.60;;;;;;4992096;28;20378;-71
2023/08/02 00:21:00;;;;;;;;;;;20.40;70.50;;;;;;4991879;28;20183;-71
2023/08/02 00:23:25;;;;;;;;;;;20.40;70.70;;;;;;4991981;28;20040;-71
2023/08/02 00:25:51;;;;;;;;;;;20.40;70.70;;;;;;4992168;28;19918;-71
2023/08/02 00:28:17;;;;;;;;;;;20.40;70.70;;;;;;4992104;28;20401;-68
2023/08/02 00:30:43;;;;;;;;;;;20.40;70.70;;;;;;4992267;28;20006;-69
2023/08/02 00:33:09;;;;;;;;;;;20.40;70.50;;;;;;4992380;28;19949;-68
2023/08/02 00:35:34;;;;;;;;;;;20.40;70.60;;;;;;4992182;28;19949;-68
2023/08/02 00:38:00;;;;;;;;;;;20.40;70.50;;;;;;4992009;28;19922;-68
2023/08/02 00:40:25;;;;;;;;;;;20.40;70.50;;;;;;4992218;28;19914;-68
2023/08/02 00:42:50;;;;;;;;;;;20.30;70.20;;;;;;4991923;28;19918;-67
2023/08/02 00:45:16;;;;;;;;;;;20.30;70.10;;;;;;4991919;28;20361;-68
2023/08/02 00:47:41;;;;;;;;;;;20.20;69.80;;;;;;4992138;28;19987;-68
2023/08/02 00:50:07;;;;;;;;;;;20.10;70.00;;;;;;4992010;28;19917;-67
2023/08/02 00:52:33;;;;;;;;;;;20.00;70.10;;;;;;4991774;28;19917;-67
2023/08/02 00:54:59;;;;;;;;;;;19.90;70.10;;;;;;4974372;28;19917;-67
2023/08/02 00:57:24;;;;;;;;;;;19.80;70.20;;;;;;4991781;28;19913;-68
2023/08/02 00:59:50;;;;;;;;;;;19.70;70.10;;;;;;4974782;28;19913;-69
2023/08/02 01:02:15;;;;;;;;;;;19.60;70.30;;;;;;4992303;28;20012;-68
2023/08/02 01:04:41;;;;;;;;;;;19.60;70.30;;;;;;4991782;28;19936;-68
2023/08/02 01:07:17;;;;;;;;;;;19.50;70.30;;;;;;4991727;28;19918;-67
2023/08/02 01:09:44;;;;;;;;;;;19.40;70.20;;;;;;4991682;28;19961;-68
2023/08/02 01:12:10;;;;;;;;;;;19.30;70.50;;;;;;4991642;28;19922;-68
2023/08/02 01:14:38;;;;;;;;;;;19.30;70.50;;;;;;4991894;28;19910;-68
2023/08/02 01:17:04;;;;;;;;;;;19.20;70.50;;;;;;4992077;28;19962;-67
2023/08/02 01:19:30;;;;;;;;;;;19.20;70.60;;;;;;4991684;28;19958;-67
2023/08/02 01:21:56;;;;;;;;;;;19.10;70.80;;;;;;4992163;28;19996;-67
2023/08/02 01:24:24;;;;;;;;;;;19.10;70.60;;;;;;4991755;28;20388;-67
2023/08/02 01:26:50;;;;;;;;;;;19.00;70.70;;;;;;4992190;28;19957;-68
2023/08/02 01:29:19;;;;;;;;;;;19.00;70.60;;;;;;4991652;28;20390;-67
2023/08/02 01:31:45;;;;;;;;;;;19.00;70.70;;;;;;4992062;28;20373;-67
2023/08/02 01:34:11;;;;;;;;;;;18.90;70.60;;;;;;4993928;28;19952;-69
2023/08/02 01:36:36;;;;;;;;;;;18.90;70.70;;;;;;4995335;28;19914;-68
2023/08/02 01:39:02;;;;;;;;;;;18.80;70.60;;;;;;4977914;28;19921;-68
2023/08/02 01:41:27;;;;;;;;;;;18.80;70.80;;;;;;4995343;28;20014;-68
2023/08/02 01:43:53;;;;;;;;;;;18.70;70.80;;;;;;4995086;28;19913;-67
2023/08/02 01:46:18;;;;;;;;;;;18.70;71.00;;;;;;4995105;28;19918;-68
2023/08/02 01:48:44;;;;;;;;;;;18.70;71.40;;;;;;4994606;28;19921;-67
2023/08/02 01:51:09;;;;;;;;;;;18.80;71.70;;;;;;4995133;28;19929;-67
2023/08/02 01:53:35;;;;;;;;;;;18.90;71.70;;;;;;4994650;28;19913;-68
2023/08/02 01:56:00;;;;;;;;;;;19.00;71.80;;;;;;4995051;28;19917;-68
2023/08/02 01:58:26;;;;;;;;;;;19.00;71.50;;;;;;4994784;28;20429;-68
2023/08/02 02:00:51;;;;;;;;;;;19.00;71.50;;;;;;4977257;28;19917;-68
2023/08/02 02:03:17;;;;;;;;;;;19.10;71.60;;;;;;4994513;28;20242;-68
2023/08/02 02:05:50;;;;;;;;;;;19.10;71.50;;;;;;4994779;28;20550;-67
2023/08/02 02:08:15;;;;;;;;;;;19.20;71.40;;;;;;4994669;28;19914;-72
2023/08/02 02:10:47;;;;;;;;;;;19.20;71.30;;;;;;4994618;28;19921;-72
2023/08/02 02:13:12;;;;;;;;;;;19.20;71.20;;;;;;4994373;28;19914;-71
2023/08/02 02:15:37;;;;;;;;;;;19.20;71.00;;;;;;4994458;28;19929;-71
2023/08/02 02:18:03;;;;;;;;;;;19.20;70.90;;;;;;4994378;28;19914;-72
2023/08/02 02:20:28;;;;;;;;;;;19.20;70.90;;;;;;4994473;28;19914;-72
2023/08/02 02:22:57;;;;;;;;;;;19.10;70.80;;;;;;4994204;28;20004;-71
2023/08/02 02:25:22;;;;;;;;;;;19.10;71.00;;;;;;4994119;28;19924;-72
2023/08/02 02:27:48;;;;;;;;;;;19.10;71.10;;;;;;4994037;28;19940;-72
2023/08/02 02:30:13;;;;;;;;;;;19.20;71.50;;;;;;4994101;28;19980;-72
2023/08/02 02:32:39;;;;;;;;;;;19.20;71.40;;;;;;4993967;28;19917;-71
2023/08/02 02:35:04;;;;;;;;;;;19.20;71.50;;;;;;4994165;28;19968;-72
2023/08/02 02:37:30;;;;;;;;;;;19.20;71.60;;;;;;4993850;28;19929;-71
2023/08/02 02:39:55;;;;;;;;;;;19.30;71.50;;;;;;4993957;28;20101;-72
2023/08/02 02:42:21;;;;;;;;;;;19.30;71.40;;;;;;4993815;28;19921;-72
2023/08/02 02:44:46;;;;;;;;;;;19.40;71.30;;;;;;4993110;28;19910;-72
2023/08/02 02:47:12;;;;;;;;;;;19.40;71.40;;;;;;4993684;28;19960;-71
2023/08/02 02:49:37;;;;;;;;;;;19.40;71.60;;;;;;4993598;28;20385;-71
2023/08/02 02:52:03;;;;;;;;;;;19.50;71.30;;;;;;4993623;28;19980;-72
2023/08/02 02:54:28;;;;;;;;;;;19.50;71.10;;;;;;4993456;28;19917;-72
2023/08/02 02:56:54;;;;;;;;;;;19.50;71.00;;;;;;4976187;28;19910;-71
2023/08/02 02:59:19;;;;;;;;;;;19.50;71.10;;;;;;4993501;28;20404;-72
2023/08/02 03:01:45;;;;;;;;;;;19.40;71.00;;;;;;4993844;28;20423;-71
2023/08/02 03:04:10;;;;;;;;;;;19.40;71.00;;;;;;4993596;28;19918;-71
2023/08/02 03:06:35;;;;;;;;;;;19.40;70.90;;;;;;4993613;28;20415;-71
2023/08/02 03:09:02;;;;;;;;;;;19.40;71.00;;;;;;4993361;28;19924;-72
2023/08/02 03:11:27;;;;;;;;;;;19.40;71.00;;;;;;4993618;28;19964;-71
2023/08/02 03:13:53;;;;;;;;;;;19.40;70.90;;;;;;4993091;28;20319;-71
2023/08/02 03:16:18;;;;;;;;;;;19.40;70.90;;;;;;4993630;28;20332;-72
2023/08/02 03:18:43;;;;;;;;;;;19.30;70.80;;;;;;4993359;28;19972;-72
2023/08/02 03:21:09;;;;;;;;;;;19.30;70.60;;;;;;4993431;28;19918;-72
2023/08/02 03:23:34;;;;;;;;;;;19.20;70.30;;;;;;4992705;28;20309;-72
2023/08/02 03:26:00;;;;;;;;;;;19.10;70.30;;;;;;4993183;28;20012;-72
2023/08/02 03:28:25;;;;;;;;;;;19.00;70.20;;;;;;4992956;28;20017;-71
2023/08/02 03:30:53;;;;;;;;;;;19.00;70.00;;;;;;4993198;28;19956;-72
2023/08/02 03:33:19;;;;;;;;;;;18.90;70.10;;;;;;4993128;28;19918;-72
2023/08/02 03:35:44;;;;;;;;;;;18.80;70.20;;;;;;4993188;28;19959;-71
2023/08/02 03:38:10;;;;;;;;;;;18.80;70.20;;;;;;4975321;28;19926;-72
2023/08/02 03:40:35;;;;;;;;;;;18.70;70.40;;;;;;4975210;28;19913;-71
2023/08/02 03:43:00;;;;;;;;;;;18.70;70.30;;;;;;4992705;28;19961;-72
2023/08/02 03:45:26;;;;;;;;;;;18.60;70.30;;;;;;4992727;28;19914;-71
2023/08/02 03:47:51;;;;;;;;;;;18.60;70.20;;;;;;4992598;28;19928;-71
2023/08/02 03:50:17;;;;;;;;;;;18.60;70.30;;;;;;4993365;28;19918;-71
2023/08/02 03:52:42;;;;;;;;;;;18.50;70.40;;;;;;4992447;28;19924;-72
2023/08/02 03:55:08;;;;;;;;;;;18.50;70.50;;;;;;4992195;28;20016;-72
2023/08/02 03:57:33;;;;;;;;;;;18.50;70.80;;;;;;4992125;28;19914;-72
2023/08/02 03:59:59;;;;;;;;;;;18.50;71.00;;;;;;4975357;28;20016;-71
2023/08/02 04:02:24;;;;;;;;;;;18.50;71.10;;;;;;4992598;28;19913;-71
2023/08/02 04:04:50;;;;;;;;;;;18.60;71.30;;;;;;4992272;28;19925;-71
2023/08/02 04:07:15;;;;;;;;;;;18.70;71.50;;;;;;4992383;28;19917;-70
2023/08/02 04:09:40;;;;;;;;;;;18.70;71.50;;;;;;4992297;28;19933;-71
2023/08/02 04:12:06;;;;;;;;;;;18.80;71.80;;;;;;4992359;28;19914;-71
2023/08/02 04:14:32;;;;;;;;;;;18.90;71.90;;;;;;4992381;28;19913;-71
2023/08/02 04:16:57;;;;;;;;;;;19.10;72.20;;;;;;4992556;28;19921;-71
2023/08/02 04:19:24;;;;;;;;;;;19.30;72.30;;;;;;4992199;28;19910;-71
2023/08/02 04:21:50;;;;;;;;;;;19.30;71.90;;;;;;4992598;28;19926;-71
2023/08/02 04:24:15;;;;;;;;;;;19.50;72.10;;;;;;4992090;28;20406;-71
2023/08/02 04:26:41;;;;;;;;;;;19.70;72.30;;;;;;4992470;28;19918;-71
2023/08/02 04:29:06;;;;;;;;;;;20.00;72.20;;;;;;4992325;28;19914;-71
2023/08/02 04:31:32;;;;;;;;;;;20.10;71.90;;;;;;4992635;28;19914;-71
2023/08/02 04:33:57;;;;;;;;;;;20.20;71.50;;;;;;4992396;28;19914;-71
2023/08/02 04:36:22;;;;;;;;;;;20.20;71.10;;;;;;4992145;28;19917;-71
2023/08/02 04:38:51;;;;;;;;;;;20.20;71.00;;;;;;4991988;28;19921;-71
2023/08/02 04:41:16;;;;;;;;;;;20.20;71.00;;;;;;4992436;28;20357;-71
2023/08/02 04:43:41;;;;;;;;;;;20.30;71.50;;;;;;4991994;28;20012;-71
2023/08/02 04:46:07;;;;;;;;;;;20.50;71.80;;;;;;4992334;28;19918;-71
2023/08/02 04:48:32;;;;;;;;;;;20.70;71.80;;;;;;4991954;28;19973;-71
2023/08/02 04:50:58;;;;;;;;;;;20.70;71.30;;;;;;4992259;28;19913;-71
2023/08/02 04:53:23;;;;;;;;;;;20.70;71.00;;;;;;4991886;28;19914;-71
2023/08/02 04:55:49;;;;;;;;;;;20.70;70.60;;;;;;4992199;28;19968;-72
2023/08/02 04:58:14;;;;;;;;;;;20.70;70.70;;;;;;4991981;28;19914;-71
2023/08/02 05:00:40;;;;;;;;;;;20.70;70.80;;;;;;4992061;28;19918;-71
2023/08/02 05:03:05;;;;;;;;;;;20.70;70.70;;;;;;4992039;28;19921;-72
2023/08/02 05:05:31;;;;;;;;;;;20.70;71.00;;;;;;4992111;28;20292;-71
2023/08/02 05:07:57;;;;;;;;;;;20.80;71.30;;;;;;4994004;28;20009;-71
2023/08/02 05:10:22;;;;;;;;;;;20.80;71.50;;;;;;4995777;28;20385;-71
2023/08/02 05:12:48;;;;;;;;;;;21.00;71.60;;;;;;4995446;28;19917;-71
2023/08/02 05:15:13;;;;;;;;;;;21.00;71.70;;;;;;4995550;28;19913;-71
2023/08/02 05:17:39;;;;;;;;;;;21.10;71.50;;;;;;4995497;28;19921;-70
2023/08/02 05:20:04;;;;;;;;;;;21.20;71.70;;;;;;4995636;28;19929;-71
2023/08/02 05:22:31;;;;;;;;;;;21.30;71.40;;;;;;4995290;28;19922;-72
2023/08/02 05:24:56;;;;;;;;;;;21.40;71.40;;;;;;4995046;28;19956;-71
2023/08/02 05:27:22;;;;;;;;;;;21.50;72.00;;;;;;4995343;28;20380;-72
2023/08/02 05:29:47;;;;;;;;;;;21.70;72.30;;;;;;4995085;28;19910;-71
2023/08/02 05:32:13;;;;;;;;;;;21.80;72.10;;;;;;4977697;28;20396;-71
2023/08/02 05:34:38;;;;;;;;;;;22.00;71.80;;;;;;4995254;28;19937;-72
2023/08/02 05:37:04;;;;;;;;;;;22.00;72.00;;;;;;4995182;28;19914;-71
2023/08/02 05:39:29;;;;;;;;;;;22.10;71.70;;;;;;4994920;28;19921;-72
2023/08/02 05:41:54;;;;;;;;;;;22.10;71.80;;;;;;4995274;28;19914;-72
2023/08/02 05:44:20;;;;;;;;;;;22.20;71.90;;;;;;4994855;28;19917;-72
2023/08/02 05:46:45;;;;;;;;;;;22.20;71.70;;;;;;4994700;28;20373;-72
2023/08/02 05:49:11;;;;;;;;;;;22.30;72.00;;;;;;4994514;28;19929;-71
2023/08/02 05:51:36;;;;;;;;;;;22.50;72.30;;;;;;4994713;28;19921;-72
2023/08/02 05:54:02;;;;;;;;;;;22.60;72.00;;;;;;4976785;28;19920;-72
2023/08/02 05:56:27;;;;;;;;;;;22.70;71.70;;;;;;5002766;28;19960;-72
2023/08/02 05:58:53;;;;;;;;;;;22.80;71.30;;;;;;5014219;28;19964;-72
2023/08/02 06:01:18;;;;;;;;;;;22.70;71.00;;;;;;5012141;28;19913;-72
2023/08/02 06:03:44;;;;;;;;;;;22.80;70.80;;;;;;4994257;28;19914;-71
2023/08/02 06:06:09;;;;;;;;;;;22.80;70.90;;;;;;5000748;28;19940;-73
2023/08/02 06:08:34;;;;;;;;;;;22.80;71.20;;;;;;5014055;28;19914;-72
2023/08/02 06:11:01;;;;;;;;;;;23.00;72.00;;;;;;5013569;28;19917;-72
2023/08/02 06:13:26;;;;;;;;;;;23.20;72.30;;;;;;4992742;28;19932;-72
2023/08/02 06:15:52;;;;;;;;;;;23.40;71.60;;;;;;4998024;28;19917;-72
2023/08/02 06:18:17;;;;;;;;;;;23.50;72.00;;;;;;5013278;28;19913;-72
2023/08/02 06:20:43;;;;;;;;;;;23.70;71.20;;;;;;5013309;28;19917;-72
2023/08/02 06:23:09;;;;;;;;;;;23.80;71.40;;;;;;4994861;28;19921;-73
2023/08/02 06:25:34;;;;;;;;;;;24.00;70.80;;;;;;4994689;28;20045;-72
2023/08/02 06:27:59;;;;;;;;;;;24.20;71.20;;;;;;5013708;28;20011;-72
2023/08/02 06:30:25;;;;;;;;;;;24.30;71.30;;;;;;5013284;28;19997;-72
2023/08/02 06:32:50;;;;;;;;;;;24.30;71.10;;;;;;5007173;28;19920;-72
2023/08/02 06:35:16;;;;;;;;;;;24.50;71.70;;;;;;5013554;28;19920;-72
2023/08/02 06:37:41;;;;;;;;;;;24.60;71.60;;;;;;4994784;28;19920;-72
2023/08/02 06:40:07;;;;;;;;;;;24.70;70.20;;;;;;4975897;28;19914;-73
2023/08/02 06:42:32;;;;;;;;;;;24.80;70.30;;;;;;4996162;28;19964;-73
2023/08/02 06:44:58;;;;;;;;;;;25.10;71.20;;;;;;4993248;28;19957;-72
2023/08/02 06:47:23;;;;;;;;;;;25.30;70.70;;;;;;5009428;28;19914;-72
2023/08/02 06:49:49;;;;;;;;;;;25.60;70.50;;;;;;5012909;28;19917;-68
2023/08/02 06:52:14;;;;;;;;;;;25.80;71.00;;;;;;5001130;28;19924;-68
2023/08/02 06:54:40;;;;;;;;;;;25.80;70.80;;;;;;4993475;28;20004;-68
2023/08/02 06:57:07;;;;;;;;;;;25.90;69.70;;;;;;5006254;28;19918;-68
2023/08/02 06:59:32;;;;;;;;;;;25.80;68.50;;;;;;5012600;28;20395;-68
2023/08/02 07:01:58;;;;;;;;;;;25.70;67.80;;;;;;5002607;28;19917;-68
2023/08/02 07:04:23;;;;;;;;;;;25.70;67.50;;;;;;4993437;28;19910;-69
2023/08/02 07:06:49;;;;;;;;;;;25.70;68.90;;;;;;5004885;28;20014;-69
2023/08/02 07:09:14;;;;;;;;;;;25.80;69.40;;;;;;4995466;28;19925;-68
2023/08/02 07:11:40;;;;;;;;;;;26.00;70.30;;;;;;5005372;28;19918;-68
2023/08/02 07:14:05;;;;;;;;;;;26.20;69.50;;;;;;4993241;28;20027;-68
2023/08/02 07:16:31;;;;;;;;;;;26.50;69.70;;;;;;4993597;28;19910;-68
2023/08/02 07:18:56;;;;;;;;;;;26.70;68.80;;;;;;4993102;28;19918;-68
2023/08/02 07:21:22;;;;;;;;;;;26.70;68.30;;;;;;4993209;28;19910;-68
2023/08/02 07:23:47;;;;;;;;;;;26.80;67.90;;;;;;4993513;28;19961;-68
2023/08/02 07:26:13;;;;;;;;;;;26.90;65.90;;;;;;4993396;28;19914;-68
2023/08/02 07:28:38;;;;;;;;;;;26.80;65.30;;;;;;4992943;28;19918;-68
2023/08/02 07:31:07;;;;;;;;;;;27.00;67.20;;;;;;4993069;28;19910;-68
2023/08/02 07:33:32;;;;;;;;;;;27.10;65.00;;;;;;4992790;28;19918;-69
2023/08/02 07:35:57;;;;;;;;;;;27.10;65.20;;;;;;4993146;28;20293;-68
2023/08/02 07:38:23;;;;;;;;;;;27.10;64.10;;;;;;4992877;28;20317;-68
2023/08/02 07:40:48;;;;;;;;;;;27.20;67.10;;;;;;4993304;28;20369;-68
2023/08/02 07:43:14;;;;;;;;;;;27.50;65.60;;;;;;4992546;28;20285;-68
2023/08/02 07:45:39;;;;;;;;;;;27.50;64.80;;;;;;4992854;28;19971;-69
2023/08/02 07:48:05;;;;;;;;;;;27.70;64.80;;;;;;4992385;28;19925;-68
2023/08/02 07:50:31;;;;;;;;;;;27.70;64.00;;;;;;4992681;28;19924;-68
2023/08/02 07:52:56;;;;;;;;;;;27.50;63.20;;;;;;4992438;28;19914;-68
2023/08/02 07:55:22;;;;;;;;;;;27.30;61.50;;;;;;4993182;28;20349;-68
2023/08/02 07:57:47;;;;;;;;;;;27.10;61.40;;;;;;4992672;28;19914;-68
2023/08/02 08:00:13;;;;;;;;;;;26.80;62.40;;;;;;4992077;28;19917;-68
2023/08/02 08:02:39;;;;;;;;;;;26.70;61.80;;;;;;4975081;28;19913;-67
2023/08/02 08:05:05;;;;;;;;;;;26.40;61.20;;;;;;4992392;28;19914;-68
2023/08/02 08:07:31;;;;;;;;;;;26.20;61.30;;;;;;4991861;28;19926;-68
2023/08/02 08:09:56;;;;;;;;;;;26.00;61.00;;;;;;4992433;28;20258;-71
2023/08/02 08:12:22;;;;;;;;;;;25.80;62.10;;;;;;4992777;28;19914;-72
2023/08/02 08:14:47;;;;;;;;;;;25.40;62.40;;;;;;4992317;28;20389;-69
2023/08/02 08:17:12;;;;;;;;;;;24.90;62.60;;;;;;4992243;28;19914;-69
2023/08/02 08:19:38;;;;;;;;;;;24.40;64.10;;;;;;4992097;28;19910;-69
2023/08/02 08:22:05;;;;;;;;;;;24.10;64.70;;;;;;4992346;28;19945;-68
2023/08/02 08:24:30;;;;;;;;;;;23.80;65.50;;;;;;4992060;28;19917;-68
2023/08/02 08:26:56;;;;;;;;;;;23.40;65.70;;;;;;4992790;28;19927;-67
2023/08/02 08:29:21;;;;;;;;;;;23.10;65.80;;;;;;4974692;28;19914;-67
2023/08/02 08:31:46;;;;;;;;;;;22.80;67.10;;;;;;4992755;28;19914;-66
2023/08/02 08:34:13;;;;;;;;;;;22.70;67.90;;;;;;4991765;28;20501;-66
2023/08/02 08:36:39;;;;;;;;;;;22.60;68.80;;;;;;4992393;28;19914;-67
2023/08/02 08:39:05;;;;;;;;;;;22.60;68.40;;;;;;4991696;28;19918;-67
2023/08/02 08:41:30;;;;;;;;;;;22.50;69.10;;;;;;4992323;28;20016;-66
2023/08/02 08:43:56;;;;;;;;;;;22.60;69.70;;;;;;4996776;28;20412;-67
2023/08/02 08:46:22;;;;;;;;;;;22.60;70.30;;;;;;4996151;28;19921;-67
2023/08/02 08:48:47;;;;;;;;;;;22.60;70.60;;;;;;4995456;28;20351;-67
2023/08/02 08:51:13;;;;;;;;;;;22.60;70.70;;;;;;4995705;28;20001;-68
2023/08/02 08:53:43;;;;;;;;;;;22.60;70.80;;;;;;4996397;28;19921;-68
2023/08/02 08:56:09;;;;;;;;;;;22.50;70.30;;;;;;4995951;28;19914;-68
2023/08/02 08:58:36;;;;;;;;;;;22.50;70.30;;;;;;4995552;28;19941;-68
2023/08/02 09:01:05;;;;;;;;;;;22.50;70.40;;;;;;4995572;28;20006;-68
2023/08/02 09:03:31;;;;;;;;;;;22.40;70.50;;;;;;4996316;28;19929;-68
2023/08/02 09:05:58;;;;;;;;;;;22.40;70.60;;;;;;4995079;28;20497;-68
2023/08/02 09:08:24;;;;;;;;;;;22.40;71.00;;;;;;4995203;28;20336;-68
2023/08/02 09:10:49;;;;;;;;;;;22.30;71.10;;;;;;4995252;28;19918;-68
2023/08/02 09:13:21;;;;;;;;;;;22.40;71.10;;;;;;4995725;28;20357;-68
2023/08/02 09:16:06;;;;;;;;;;;22.30;70.70;;;;;;4995384;28;19914;-68
2023/08/02 09:18:35;;;;;;;;;;;22.30;70.90;;;;;;4998744;28;19968;-68
2023/08/02 09:21:01;;;;;;;;;;;22.30;71.20;;;;;;5015428;28;19914;-68
2023/08/02 09:23:26;;;;;;;;;;;22.30;70.90;;;;;;4995547;28;19925;-67
2023/08/02 09:25:52;;;;;;;;;;;22.30;71.00;;;;;;5014868;28;19929;-68
2023/08/02 09:28:17;;;;;;;;;;;22.20;70.80;;;;;;5014962;28;19967;-68
2023/08/02 09:30:43;;;;;;;;;;;22.20;70.60;;;;;;5014967;28;20395;-67
2023/08/02 09:33:08;;;;;;;;;;;22.20;70.80;;;;;;4995516;28;19944;-68
2023/08/02 09:35:54;;;;;;;;;;;22.10;70.90;;;;;;5014854;28;19920;-68
2023/08/02 09:38:20;;;;;;;;;;;22.10;70.80;;;;;;5014169;28;19976;-68
2023/08/02 09:40:48;;;;;;;;;;;22.00;71.00;;;;;;5014813;28;19972;-68
2023/08/02 09:43:14;;;;;;;;;;;22.00;71.10;;;;;;4994927;28;19941;-68
2023/08/02 09:45:40;;;;;;;;;;;22.00;71.10;;;;;;4996821;28;20020;-68
2023/08/02 09:48:05;;;;;;;;;;;21.90;71.20;;;;;;4995199;28;20293;-68
2023/08/02 09:50:31;;;;;;;;;;;22.00;71.60;;;;;;5013898;28;19920;-68
2023/08/02 09:52:57;;;;;;;;;;;22.00;71.70;;;;;;4996344;28;20041;-68
2023/08/02 09:55:23;;;;;;;;;;;22.10;72.00;;;;;;5011835;28;20377;-67
2023/08/02 09:57:48;;;;;;;;;;;22.20;72.00;;;;;;5014824;28;20004;-67
2023/08/02 10:00:14;;;;;;;;;;;22.20;72.20;;;;;;5014013;28;20373;-68
2023/08/02 10:02:40;;;;;;;;;;;22.30;72.00;;;;;;4998755;28;19921;-67
2023/08/02 10:05:07;;;;;;;;;;;22.30;71.60;;;;;;5010293;28;20288;-67
2023/08/02 10:07:39;;;;;;;;;;;22.30;71.60;;;;;;5014322;28;20372;-67
2023/08/02 10:10:06;;;;;;;;;;;22.30;71.00;;;;;;5013739;28;19953;-68
2023/08/02 10:12:34;;;;;;;;;;;22.30;71.30;;;;;;4999783;28;20339;-67
2023/08/02 10:15:00;;;;;;;;;;;22.20;71.10;;;;;;5009271;28;20347;-69
2023/08/02 10:17:26;;;;;;;;;;;22.30;71.40;;;;;;5013842;28;19953;-69
2023/08/02 10:19:51;;;;;;;;;;;22.30;71.70;;;;;;5013659;28;19956;-69
2023/08/02 10:22:18;;;;;;;;;;;22.30;72.10;;;;;;5001619;28;19910;-70
2023/08/02 10:24:44;;;;;;;;;;;22.30;71.70;;;;;;5004654;28;19918;-71
2023/08/02 10:27:10;;;;;;;;;;;22.30;72.10;;;;;;4993630;28;20024;-69
2023/08/02 10:29:37;;;;;;;;;;;22.30;72.20;;;;;;4994199;28;20004;-68
2023/08/02 10:32:16;;;;;;;;;;;22.30;71.80;;;;;;4994235;28;20353;-68
2023/08/02 10:34:42;;;;;;;;;;;22.30;71.60;;;;;;4994335;28;20372;-69
2023/08/02 10:37:07;;;;;;;;;;;22.30;72.00;;;;;;4994036;28;19918;-68
2023/08/02 10:39:45;;;;;;;;;;;22.30;72.00;;;;;;4993934;28;19920;-69
2023/08/02 10:42:14;;;;;;;;;;;22.30;72.50;;;;;;4994138;28;19925;-68
2023/08/02 10:44:55;;;;;;;;;;;22.30;72.40;;;;;;4993702;28;20444;-68
2023/08/02 10:47:26;;;;;;;;;;;22.40;72.40;;;;;;4993999;28;20016;-68
2023/08/02 10:49:52;;;;;;;;;;;22.50;72.70;;;;;;4993622;28;19921;-67
2023/08/02 10:52:24;;;;;;;;;;;22.60;73.00;;;;;;4993893;28;19914;-69
2023/08/02 10:55:08;;;;;;;;;;;22.80;73.00;;;;;;5009411;28;20016;-69
2023/08/02 10:57:34;;;;;;;;;;;22.90;72.80;;;;;;4995749;28;19914;-69
2023/08/02 11:00:00;;;;;;;;;;;23.00;73.20;;;;;;5013395;28;20478;-67
2023/08/02 11:02:25;;;;;;;;;;;23.20;73.30;;;;;;5013329;28;19913;-67
2023/08/02 11:04:51;;;;;;;;;;;23.40;73.00;;;;;;5012796;28;20360;-67
2023/08/02 11:07:18;;;;;;;;;;;23.50;72.80;;;;;;5013318;28;19968;-68
2023/08/02 11:09:45;;;;;;;;;;;23.70;72.80;;;;;;5013149;28;19993;-68
2023/08/02 11:12:14;;;;;;;;;;;23.80;72.40;;;;;;5013122;28;19928;-69
2023/08/02 11:14:40;;;;;;;;;;;24.00;72.40;;;;;;5004221;28;19917;-68
2023/08/02 11:17:06;;;;;;;;;;;24.10;72.40;;;;;;4990723;28;20350;-67
2023/08/02 11:19:31;;;;;;;;;;;24.20;72.00;;;;;;4993169;28;19964;-67
2023/08/02 11:21:59;;;;;;;;;;;24.30;71.90;;;;;;4993290;28;20016;-68
2023/08/02 11:24:25;;;;;;;;;;;24.50;72.00;;;;;;4993095;28;19914;-68
2023/08/02 11:26:55;;;;;;;;;;;24.70;71.90;;;;;;4993384;28;19917;-67
2023/08/02 11:29:20;;;;;;;;;;;24.80;71.50;;;;;;4993282;28;19976;-68
2023/08/02 11:31:50;;;;;;;;;;;24.90;71.80;;;;;;4993097;28;19945;-69
2023/08/02 11:34:18;;;;;;;;;;;25.20;72.00;;;;;;4992958;28;19976;-68
2023/08/02 11:36:45;;;;;;;;;;;25.30;71.70;;;;;;4992973;28;19913;-66
2023/08/02 11:39:17;;;;;;;;;;;25.50;71.60;;;;;;4992935;28;19988;-68
2023/08/02 11:41:43;;;;;;;;;;;25.70;71.80;;;;;;4992859;28;19912;-67
2023/08/02 11:44:15;;;;;;;;;;;25.80;71.30;;;;;;4992716;28;20433;-67
2023/08/02 11:46:40;;;;;;;;;;;25.80;71.10;;;;;;4992825;28;19981;-68
2023/08/02 11:49:07;;;;;;;;;;;25.70;70.80;;;;;;4992710;28;19956;-67
2023/08/02 11:51:32;;;;;;;;;;;25.50;70.60;;;;;;4992542;28;19940;-67
2023/08/02 11:53:59;;;;;;;;;;;25.40;70.60;;;;;;4992877;28;19917;-67
2023/08/02 11:56:25;;;;;;;;;;;25.30;70.60;;;;;;4992673;28;19910;-68
2023/08/02 11:58:51;;;;;;;;;;;25.20;70.00;;;;;;4993004;28;19914;-68
2023/08/02 12:01:18;;;;;;;;;;;24.90;69.70;;;;;;4992674;28;20373;-67
2023/08/02 12:04:00;;;;;;;;;;;24.70;70.10;;;;;;4993011;28;19929;-67
2023/08/02 12:06:26;;;;;;;;;;;24.60;70.40;;;;;;4992385;28;19973;-66
2023/08/02 12:08:53;;;;;;;;;;;24.50;71.10;;;;;;4992890;28;20353;-67
2023/08/02 12:11:19;;;;;;;;;;;24.50;71.10;;;;;;4992570;28;19925;-67
2023/08/02 12:13:44;;;;;;;;;;;24.50;71.10;;;;;;4992834;28;19922;-67
2023/08/02 12:16:10;;;;;;;;;;;24.30;71.00;;;;;;4992158;28;19922;-68
2023/08/02 12:18:50;;;;;;;;;;;24.30;71.10;;;;;;4992218;28;20000;-69
2023/08/02 12:21:16;;;;;;;;;;;24.30;71.60;;;;;;4992232;28;19929;-70
2023/08/02 12:23:41;;;;;;;;;;;24.30;72.30;;;;;;4992311;28;19922;-70
2023/08/02 12:26:07;;;;;;;;;;;24.40;72.70;;;;;;4992627;28;19918;-69
2023/08/02 12:28:43;;;;;;;;;;;24.40;72.50;;;;;;4974908;28;19964;-69
2023/08/02 12:31:08;;;;;;;;;;;24.40;72.40;;;;;;4992517;28;20008;-69
2023/08/02 12:33:34;;;;;;;;;;;24.30;72.20;;;;;;4992469;28;19957;-70
2023/08/02 12:35:59;;;;;;;;;;;24.30;72.00;;;;;;4992260;28;20742;-69
2023/08/02 12:38:29;;;;;;;;;;;24.20;72.20;;;;;;4992491;28;19960;-69
2023/08/02 12:40:58;;;;;;;;;;;24.30;72.60;;;;;;4992312;28;19914;-69
2023/08/02 12:43:23;;;;;;;;;;;24.40;73.30;;;;;;4992379;28;19914;-68
2023/08/02 12:45:49;;;;;;;;;;;24.70;74.50;;;;;;4992129;28;19926;-68
2023/08/02 12:48:15;;;;;;;;;;;25.10;74.20;;;;;;4992316;28;19914;-71
2023/08/02 12:50:41;;;;;;;;;;;25.40;74.30;;;;;;4992209;28;19914;-72
2023/08/02 12:53:06;;;;;;;;;;;25.80;73.90;;;;;;4992346;28;19913;-72
2023/08/02 12:55:31;;;;;;;;;;;26.10;73.40;;;;;;4991879;28;19953;-72
2023/08/02 12:57:57;;;;;;;;;;;26.40;73.10;;;;;;4992284;28;19914;-72
2023/08/02 13:00:22;;;;;;;;;;;26.70;73.40;;;;;;4974524;28;19921;-71
2023/08/02 13:02:48;;;;;;;;;;;27.10;73.00;;;;;;4992196;28;19913;-71
2023/08/02 13:05:13;;;;;;;;;;;27.30;72.50;;;;;;4992047;28;19914;-72
2023/08/02 13:07:39;;;;;;;;;;;27.50;72.60;;;;;;4991957;28;19929;-70
2023/08/02 13:10:04;;;;;;;;;;;27.80;72.50;;;;;;4991911;28;20396;-70
2023/08/02 13:12:33;;;;;;;;;;;28.00;72.50;;;;;;4992013;28;19926;-69
2023/08/02 13:15:01;;;;;;;;;;;28.10;72.00;;;;;;4991886;28;19921;-69
2023/08/02 13:17:27;;;;;;;;;;;28.10;71.90;;;;;;4991779;28;19914;-69
2023/08/02 13:19:53;;;;;;;;;;;28.10;71.60;;;;;;4992087;28;19921;-70
2023/08/02 13:22:19;;;;;;;;;;;28.30;71.80;;;;;;4991927;28;20300;-70
2023/08/02 13:24:44;;;;;;;;;;;28.50;71.40;;;;;;4992168;28;19925;-71
2023/08/02 13:27:09;;;;;;;;;;;28.60;71.00;;;;;;4991719;28;19976;-71
2023/08/02 13:29:35;;;;;;;;;;;28.90;70.80;;;;;;4995039;28;19910;-71
2023/08/02 13:32:01;;;;;;;;;;;28.90;69.80;;;;;;4995404;28;20012;-71
2023/08/02 13:34:26;;;;;;;;;;;28.80;69.50;;;;;;4995372;28;19910;-71
2023/08/02 13:36:52;;;;;;;;;;;28.70;68.90;;;;;;4995144;28;20452;-71
2023/08/02 13:39:17;;;;;;;;;;;28.50;69.00;;;;;;4995276;28;20408;-71
2023/08/02 13:41:43;;;;;;;;;;;28.30;69.10;;;;;;4995023;28;19922;-71
2023/08/02 13:44:08;;;;;;;;;;;28.20;69.20;;;;;;4995094;28;19925;-70
2023/08/02 13:46:34;;;;;;;;;;;27.90;69.10;;;;;;4977378;28;19928;-71
2023/08/02 13:49:00;;;;;;;;;;;27.70;69.20;;;;;;4994796;28;19925;-70
2023/08/02 13:51:26;;;;;;;;;;;27.60;69.90;;;;;;4977345;28;19923;-70
2023/08/02 13:53:52;;;;;;;;;;;27.50;69.30;;;;;;4977566;28;22224;-70
2023/08/02 13:56:17;;;;;;;;;;;27.30;69.60;;;;;;4994901;28;20385;-70
2023/08/02 13:58:43;;;;;;;;;;;27.10;69.90;;;;;;4994832;28;19910;-72
2023/08/02 14:01:08;;;;;;;;;;;27.00;70.50;;;;;;4994844;28;20317;-70
2023/08/02 14:03:33;;;;;;;;;;;26.90;70.80;;;;;;4995733;28;20369;-71
2023/08/02 14:06:00;;;;;;;;;;;26.80;70.20;;;;;;4994611;28;20413;-73
2023/08/02 14:08:26;;;;;;;;;;;26.40;69.90;;;;;;5011481;28;19909;-72
2023/08/02 14:10:51;;;;;;;;;;;26.00;69.40;;;;;;5014569;28;19917;-72